createdAt,value
2019-04-05T00:00:40.532Z,8.20
2019-04-05T00:05:43.459Z,8.10
2019-04-05T00:10:46.296Z,8.10
2019-04-05T00:15:49.079Z,8.10
2019-04-05T00:20:55.899Z,8.00
2019-04-05T00:25:59.570Z,7.90
2019-04-05T00:31:02.408Z,7.90
2019-04-05T00:36:05.287Z,7.80
2019-04-05T00:41:08.316Z,7.80
2019-04-05T00:46:11.088Z,7.80
2019-04-05T00:51:13.785Z,7.70
2019-04-05T00:56:16.688Z,7.70
2019-04-05T01:01:19.621Z,7.60
2019-04-05T01:06:22.519Z,7.60
2019-04-05T01:11:25.414Z,7.60
2019-04-05T01:16:28.585Z,7.60
2019-04-05T01:21:38.142Z,7.50
2019-04-05T01:26:44.178Z,7.50
2019-04-05T01:31:46.828Z,7.50
2019-04-05T01:36:49.428Z,7.40
2019-04-05T01:41:52.198Z,7.50
2019-04-05T01:46:55.127Z,7.40
2019-04-05T01:51:59.274Z,7.40
2019-04-05T01:57:02.170Z,7.30
2019-04-05T02:02:05.041Z,7.30
2019-04-05T02:07:08.544Z,7.30
2019-04-05T02:12:11.342Z,7.30
2019-04-05T02:17:14.237Z,7.30
2019-04-05T02:22:18.075Z,7.20
2019-04-05T02:27:20.827Z,7.20
2019-04-05T02:32:23.648Z,7.20
2019-04-05T02:37:28.190Z,7.20
2019-04-05T02:42:45.383Z,7.10
2019-04-05T02:47:52.186Z,7.10
2019-04-05T02:52:58.893Z,7.10
2019-04-05T02:58:03.569Z,7.00
2019-04-05T03:03:07.041Z,7.00
2019-04-05T03:08:10.044Z,7.00
2019-04-05T03:13:13.113Z,7.00
2019-04-05T03:18:16.057Z,6.90
2019-04-05T03:23:19.410Z,6.90
2019-04-05T03:28:23.090Z,6.90
2019-04-05T03:33:26.209Z,6.90
2019-04-05T03:38:29.044Z,6.80
2019-04-05T03:43:33.015Z,6.80
2019-04-05T03:48:36.327Z,6.80
2019-04-05T03:53:39.539Z,6.70
2019-04-05T03:58:42.630Z,6.70
2019-04-05T04:03:45.442Z,6.60
2019-04-05T04:08:48.236Z,6.50
2019-04-05T04:13:51.208Z,6.50
2019-04-05T04:18:54.070Z,6.40
2019-04-05T04:23:57.298Z,6.30
2019-04-05T04:29:00.094Z,6.20
2019-04-05T04:34:03.000Z,6.20
2019-04-05T04:39:05.908Z,6.10
2019-04-05T04:44:08.944Z,6.10
2019-04-05T04:49:11.900Z,6.10
2019-04-05T04:54:14.673Z,6.10
2019-04-05T04:59:17.618Z,6.10
2019-04-05T05:04:20.499Z,6.10
2019-04-05T05:09:23.348Z,6.10
2019-04-05T05:14:26.769Z,6.10
2019-04-05T05:19:29.579Z,6.10
2019-04-05T05:24:32.954Z,6.10
2019-04-05T05:29:35.729Z,6.20
2019-04-05T05:34:38.417Z,6.10
2019-04-05T05:39:41.218Z,6.10
2019-04-05T05:44:44.198Z,6.10
2019-04-05T05:49:46.972Z,6.10
2019-04-05T05:54:49.827Z,6.20
2019-04-05T05:59:52.729Z,6.30
2019-04-05T06:04:55.590Z,6.40
2019-04-05T06:09:58.370Z,6.40
2019-04-05T06:15:01.166Z,6.60
2019-04-05T06:20:05.096Z,6.70
2019-04-05T06:25:08.122Z,6.90
2019-04-05T06:30:10.843Z,7.00
2019-04-05T06:35:13.796Z,7.20
2019-04-05T06:40:16.554Z,7.40
2019-04-05T06:45:19.449Z,7.50
2019-04-05T06:50:22.309Z,7.70
2019-04-05T06:55:25.277Z,7.80
2019-04-05T07:00:28.910Z,8.00
2019-04-05T07:05:31.826Z,8.10
2019-04-05T07:10:34.598Z,8.30
2019-04-05T07:15:37.338Z,8.40
2019-04-05T07:20:40.527Z,8.60
2019-04-05T07:25:43.273Z,8.80
2019-04-05T07:30:46.225Z,8.80
2019-04-05T07:35:48.982Z,8.90
2019-04-05T07:40:51.824Z,9.10
2019-04-05T07:45:54.532Z,9.20
2019-04-05T07:50:57.329Z,9.40
2019-04-05T07:56:00.217Z,9.50
2019-04-05T08:01:04.761Z,9.70
2019-04-05T08:06:07.651Z,9.70
2019-04-05T08:11:13.885Z,9.80
2019-04-05T08:16:16.836Z,10.00
2019-04-05T08:21:19.798Z,10.10
2019-04-05T08:26:22.534Z,10.40
2019-04-05T08:31:25.374Z,10.50
2019-04-05T08:36:28.254Z,10.70
2019-04-05T08:41:31.086Z,10.90
2019-04-05T08:46:34.422Z,11.10
2019-04-05T08:51:37.241Z,11.30
2019-04-05T08:56:40.017Z,11.60
2019-04-05T09:01:42.869Z,11.80
2019-04-05T09:06:45.601Z,12.10
2019-04-05T09:11:48.430Z,12.30
2019-04-05T09:16:51.060Z,12.50
2019-04-05T09:21:53.979Z,12.60
2019-04-05T09:26:56.879Z,12.80
2019-04-05T09:31:59.635Z,13.10
2019-04-05T09:37:02.396Z,13.50
2019-04-05T09:42:05.189Z,13.80
2019-04-05T09:47:07.882Z,14.10
2019-04-05T09:52:10.627Z,14.40
2019-04-05T09:57:13.447Z,14.90
2019-04-05T10:02:16.411Z,15.00
2019-04-05T10:07:19.320Z,15.30
2019-04-05T10:12:22.264Z,16.00
2019-04-05T10:17:25.065Z,16.30
2019-04-05T10:22:27.903Z,16.40
2019-04-05T10:27:31.652Z,16.30
2019-04-05T10:32:34.571Z,16.40
2019-04-05T10:37:37.293Z,16.80
2019-04-05T10:42:40.205Z,17.10
2019-04-05T10:47:45.898Z,17.40
2019-04-05T10:52:48.692Z,17.50
2019-04-05T10:57:51.322Z,17.40
2019-04-05T11:02:54.060Z,17.60
2019-04-05T11:07:56.726Z,17.60
2019-04-05T11:12:59.560Z,17.60
2019-04-05T11:18:04.541Z,17.50
2019-04-05T11:23:06.984Z,17.70
2019-04-05T11:28:09.657Z,18.00
2019-04-05T11:33:12.632Z,18.10
2019-04-05T11:38:15.375Z,17.80
2019-04-05T11:43:20.314Z,17.80
2019-04-05T11:48:23.129Z,18.00
2019-04-05T11:53:25.904Z,17.90
2019-04-05T11:58:28.742Z,17.80
2019-04-05T12:03:31.615Z,17.70
2019-04-05T12:08:34.339Z,17.80
2019-04-05T12:13:37.233Z,17.70
2019-04-05T12:18:40.068Z,18.20
2019-04-05T12:23:42.917Z,18.70
2019-04-05T12:28:45.667Z,18.90
2019-04-05T12:33:51.346Z,19.10
2019-04-05T12:38:54.308Z,19.00
2019-04-05T12:43:57.200Z,19.00
2019-04-05T12:49:00.076Z,19.10
2019-04-05T12:54:02.900Z,18.90
2019-04-05T12:59:21.467Z,19.20
2019-04-05T13:04:24.409Z,19.30
2019-04-05T13:09:27.265Z,19.20
2019-04-05T13:14:30.072Z,19.30
2019-04-05T13:19:33.265Z,19.20
2019-04-05T13:24:39.590Z,19.10
2019-04-05T13:29:40.838Z,19.00
2019-04-05T13:34:43.667Z,18.70
2019-04-05T13:39:46.896Z,18.60
2019-04-05T13:44:49.785Z,18.50
2019-04-05T13:49:52.554Z,18.40
2019-04-05T13:54:55.458Z,18.40
2019-04-05T13:59:58.154Z,18.30
2019-04-05T14:05:00.982Z,18.10
2019-04-05T14:10:04.923Z,18.40
2019-04-05T14:15:11.346Z,20.40
2019-04-05T14:20:18.774Z,20.70
2019-04-05T14:25:19.158Z,21.90
2019-04-05T14:30:22.040Z,21.00
2019-04-05T14:35:25.541Z,20.20
2019-04-05T14:40:30.340Z,20.10
2019-04-05T14:45:33.100Z,19.50
2019-04-05T14:50:35.864Z,19.20
2019-04-05T14:55:38.507Z,18.80
2019-04-05T15:00:41.326Z,18.30
2019-04-05T15:05:44.080Z,18.10
2019-04-05T15:10:46.971Z,17.90
2019-04-05T15:15:49.843Z,17.70
2019-04-05T15:20:52.884Z,17.40
2019-04-05T15:25:55.939Z,17.20
2019-04-05T15:30:59.059Z,17.10
2019-04-05T15:36:03.115Z,17.00
2019-04-05T15:41:07.381Z,16.90
2019-04-05T15:46:11.466Z,16.80
2019-04-05T15:51:14.235Z,16.90
2019-04-05T15:56:17.079Z,16.90
2019-04-05T16:01:19.891Z,16.80
2019-04-05T16:06:22.577Z,16.80
2019-04-05T16:11:25.425Z,16.70
2019-04-05T16:16:28.074Z,16.60
2019-04-05T16:21:30.876Z,16.60
2019-04-05T16:26:33.592Z,16.60
2019-04-05T16:31:37.550Z,16.50
2019-04-05T16:36:40.296Z,16.40
2019-04-05T16:41:43.595Z,16.40
2019-04-05T16:46:46.373Z,16.30
2019-04-05T16:51:49.296Z,16.20
2019-04-05T16:56:52.220Z,16.10
2019-04-05T17:01:56.879Z,16.00
2019-04-05T17:06:59.958Z,15.90
2019-04-05T17:12:02.796Z,15.80
2019-04-05T17:17:05.588Z,15.70
2019-04-05T17:22:08.393Z,15.50
2019-04-05T17:27:11.360Z,15.40
2019-04-05T17:32:17.849Z,15.30
2019-04-05T17:37:20.628Z,15.10
2019-04-05T17:42:23.619Z,14.80
2019-04-05T17:47:26.523Z,14.60
2019-04-05T17:52:29.320Z,14.40
2019-04-05T17:57:32.371Z,14.20
2019-04-05T18:02:35.287Z,14.00
2019-04-05T18:07:38.040Z,13.80
2019-04-05T18:12:40.876Z,13.70
2019-04-05T18:17:44.512Z,13.60
2019-04-05T18:22:47.448Z,13.50
2019-04-05T18:27:50.229Z,13.50
2019-04-05T18:32:52.948Z,13.40
2019-04-05T18:37:55.994Z,13.40
2019-04-05T18:42:59.190Z,13.40
2019-04-05T18:48:01.883Z,13.40
2019-04-05T18:53:04.780Z,13.30
2019-04-05T18:58:07.620Z,13.30
2019-04-05T19:03:10.549Z,13.30
2019-04-05T19:08:13.506Z,13.30
2019-04-05T19:13:16.316Z,13.20
2019-04-05T19:18:19.111Z,13.10
2019-04-05T19:23:22.078Z,13.00
2019-04-05T19:28:25.029Z,12.90
2019-04-05T19:48:41.821Z,12.50
2019-04-05T19:53:44.781Z,12.40
2019-04-05T19:58:47.765Z,12.40
2019-04-05T20:03:50.552Z,12.30
2019-04-05T20:08:53.400Z,12.20
2019-04-05T20:13:56.391Z,12.10
2019-04-05T20:18:59.444Z,11.90
2019-04-05T20:24:13.494Z,11.80
2019-04-05T20:29:07.849Z,11.80
2019-04-05T20:34:10.816Z,11.80
2019-04-05T20:39:16.282Z,11.70
2019-04-05T20:44:19.150Z,11.60
2019-04-05T20:49:22.061Z,11.50
2019-04-05T20:54:25.093Z,11.40
2019-04-05T20:59:31.298Z,11.40
2019-04-05T21:04:35.233Z,11.30
2019-04-05T21:09:38.203Z,11.20
2019-04-05T21:14:41.034Z,11.10
2019-04-05T21:19:43.968Z,11.00
2019-04-05T21:24:46.736Z,10.90
2019-04-05T21:29:49.584Z,10.90
2019-04-05T21:34:52.333Z,10.80
2019-04-05T21:39:55.161Z,10.80
2019-04-05T21:44:58.520Z,10.70
2019-04-05T21:50:01.311Z,10.70
2019-04-05T21:55:04.481Z,10.60
2019-04-05T22:00:13.504Z,10.60
2019-04-05T22:05:18.174Z,10.60
2019-04-05T22:10:20.985Z,10.50
2019-04-05T22:15:23.758Z,10.50
2019-04-05T22:20:26.551Z,10.50
2019-04-05T22:25:29.459Z,10.50
2019-04-05T22:30:32.307Z,10.50
2019-04-05T22:35:35.040Z,10.50
2019-04-05T22:40:37.800Z,10.50
2019-04-05T22:45:40.750Z,10.50
2019-04-05T22:50:43.643Z,10.40
2019-04-05T22:55:46.527Z,10.30
2019-04-05T23:00:49.302Z,10.30
2019-04-05T23:05:51.985Z,10.30
2019-04-05T23:10:54.712Z,10.20
2019-04-05T23:15:57.459Z,10.10
2019-04-05T23:21:00.225Z,10.00
2019-04-05T23:26:03.135Z,10.00
2019-04-05T23:31:06.011Z,10.00
2019-04-05T23:36:09.799Z,9.90
2019-04-05T23:41:12.673Z,9.90
2019-04-05T23:46:15.509Z,9.80
2019-04-05T23:51:18.215Z,9.80
2019-04-05T23:56:20.941Z,9.80
